Date,TemperatureHighF,TemperatureAvgF,TemperatureLowF,DewpointHighF,DewpointAvgF,DewpointLowF,HumidityHigh,HumidityAvg,HumidityLow,PressureMaxIn,PressureMinIn,WindSpeedMaxMPH,WindSpeedAvgMPH,GustSpeedMaxMPH,PrecipitationSumIn
2013-6-1,92.7,82.4,74.1,77.0,74.3,72.0,94,78,55,29.96,29.88,11,2,14,0.00
2013-6-2,88.0,78.0,68.5,75.7,72.8,66.4,95,85,63,30.02,29.86,19,2,28,0.62
2013-6-3,89.2,81.0,73.0,75.4,73.2,71.1,94,78,60,29.93,29.83,10,2,11,0.00
2013-6-4,96.6,83.8,73.6,76.8,74.1,71.2,94,74,47,29.92,29.82,10,2,12,0.00
2013-6-5,94.1,83.0,75.0,77.5,75.1,72.5,93,78,54,29.91,29.78,11,2,16,0.00
2013-6-6,93.6,80.1,68.7,77.0,72.9,66.0,94,80,54,29.88,29.71,12,2,19,1.67
2013-6-7,88.0,77.5,69.4,72.5,70.3,67.6,96,80,56,29.90,29.80,9,1,12,0.00
2013-6-8,92.7,78.5,71.1,74.7,70.6,68.0,92,78,50,29.96,29.88,7,1,14,0.00
2013-6-9,91.9,78.9,72.9,76.3,72.0,68.0,94,81,53,29.97,29.86,17,2,21,0.11
2013-6-10,92.7,81.6,73.0,78.6,74.9,71.2,95,82,57,30.01,29.94,8,1,13,0.01
2013-6-11,97.2,84.9,76.1,79.3,76.0,73.4,94,77,51,30.08,29.98,5,1,10,0.00
2013-6-12,96.8,85.1,75.2,78.3,75.3,72.9,94,75,48,30.09,29.99,7,1,8,0.00
2013-6-13,96.4,84.8,74.5,79.0,75.3,72.7,95,75,50,30.06,29.90,7,1,10,0.00
2013-6-14,95.2,85.8,77.4,80.4,76.4,70.0,92,75,59,29.95,29.84,12,3,14,0.00
2013-6-15,95.9,84.2,73.9,77.5,72.6,67.1,84,69,52,30.00,29.90,7,2,12,0.00
2013-6-16,96.1,85.6,78.3,79.0,76.5,73.9,91,76,54,30.05,29.94,9,2,11,0.00
2013-6-17,94.5,83.8,74.3,76.8,74.2,71.2,93,74,50,30.02,29.91,11,2,14,0.00
2013-6-18,93.0,83.3,74.1,78.8,73.9,69.6,91,75,55,30.00,29.87,11,3,18,0.01
2013-6-19,84.7,76.5,72.1,78.6,72.5,69.3,95,88,75,30.06,29.94,5,1,8,0.82
2013-6-20,91.9,81.5,73.2,78.8,74.8,71.8,96,81,60,30.12,30.01,9,1,11,0.00
2013-6-21,94.8,81.4,72.9,77.9,74.4,71.1,95,80,52,30.11,30.03,7,1,10,0.00
2013-6-22,93.2,80.8,72.7,77.7,74.0,67.6,95,81,54,30.09,29.99,20,2,32,1.86
2013-6-23,96.3,81.2,72.3,77.2,73.8,70.5,95,80,49,30.07,29.99,8,1,15,0.00
2013-6-24,89.4,81.7,75.9,79.3,74.9,72.3,92,81,61,30.13,30.03,8,1,17,0.40
2013-6-25,94.3,83.4,74.7,77.5,74.1,70.5,94,75,48,30.10,29.98,10,1,12,0.00
2013-6-26,97.2,85.0,73.0,78.1,74.3,70.7,94,72,48,30.06,29.94,6,1,9,0.00
2013-6-27,97.5,85.5,74.7,79.2,76.3,72.5,94,76,53,30.02,29.91,7,1,10,0.00
2013-6-28,96.4,85.7,77.2,79.2,76.9,75.0,93,77,55,29.95,29.76,8,2,14,0.00
2013-6-29,90.0,80.8,71.6,80.2,76.4,69.1,95,87,72,29.85,29.69,10,2,16,1.36
2013-6-30,93.2,82.8,73.8,77.0,71.0,63.7,95,70,40,29.81,29.72,9,2,15,0.01